Other Surface Observations
Issued by NWS Great Falls, MT

Home | Current Version | Previous Version | Text Only | Print | Product List | Glossary On
Versions: 1 2 3 4 5 6 7 8 9 10 11 12 13 14 15 16 17 18 19 20 21 22 23 24 25 26 27 28 29 30 31 32 33 34 35 36 37 38 39 40 41 42 43 44 45 46 47 48 49 50
440
SXUS55 KTFX 241229
OSOTFX

AREA AWOS OBSERVATIONS
NATIONAL WEATHER SERVICE GREAT FALLS MT
0629 AM MDT Thu May 24 2018

METAR K3U3 241228Z AUTO 18006KT 11/08 A3000
METAR KS71 241228Z AUTO 06000KT 10SM 11/11 A2981
METAR K38S 241228Z AUTO 21003KT 10SM 09/08 A3000
METAR K6S5 241229Z AUTO 17009 10SM 13/09 A2995
METAR K1S3 241228Z AUTO 25000KT 14/14 A2985
METAR KPWD 241228Z AUTO 13000KT 10SM 15/15 A2978
METAR KPO1 241228Z AUTO 19003KT  2 1/2SM 16/14 A2979



USA.gov is the U.S. government's official web portal to all federal, state and local government web resources and services.